sensor_id;sensor_type;location;lat;lon;timestamp;P1;durP1;ratioP1;P2;durP2;ratioP2
71166;SDS011;58864;45.928;20.078;2024-01-15T00:00:23;75.43;;;31.67;;
71166;SDS011;58864;45.928;20.078;2024-01-15T00:02:48;85.30;;;34.17;;
71166;SDS011;58864;45.928;20.078;2024-01-15T00:05:12;74.95;;;31.63;;
71166;SDS011;58864;45.928;20.078;2024-01-15T00:07:37;72.03;;;30.67;;
71166;SDS011;58864;45.928;20.078;2024-01-15T00:10:02;65.70;;;29.40;;
71166;SDS011;58864;45.928;20.078;2024-01-15T00:12:26;67.20;;;28.60;;
71166;SDS011;58864;45.928;20.078;2024-01-15T00:14:51;68.93;;;28.53;;
71166;SDS011;58864;45.928;20.078;2024-01-15T00:17:15;65.43;;;28.13;;
71166;SDS011;58864;45.928;20.078;2024-01-15T00:19:40;66.30;;;28.37;;
71166;SDS011;58864;45.928;20.078;2024-01-15T00:22:05;71.57;;;30.27;;
71166;SDS011;58864;45.928;20.078;2024-01-15T00:24:31;70.30;;;30.20;;
71166;SDS011;58864;45.928;20.078;2024-01-15T00:26:56;67.90;;;28.83;;
71166;SDS011;58864;45.928;20.078;2024-01-15T00:29:21;66.10;;;28.27;;
71166;SDS011;58864;45.928;20.078;2024-01-15T00:31:45;63.85;;;28.10;;
71166;SDS011;58864;45.928;20.078;2024-01-15T00:34:10;64.80;;;28.83;;
71166;SDS011;58864;45.928;20.078;2024-01-15T00:36:34;65.60;;;28.00;;
71166;SDS011;58864;45.928;20.078;2024-01-15T00:38:59;60.70;;;26.67;;
71166;SDS011;58864;45.928;20.078;2024-01-15T00:41:23;61.23;;;27.00;;
71166;SDS011;58864;45.928;20.078;2024-01-15T00:43:48;59.53;;;27.42;;
71166;SDS011;58864;45.928;20.078;2024-01-15T00:46:15;64.57;;;26.97;;
71166;SDS011;58864;45.928;20.078;2024-01-15T00:48:39;66.43;;;28.27;;
71166;SDS011;58864;45.928;20.078;2024-01-15T00:51:04;65.70;;;30.20;;
71166;SDS011;58864;45.928;20.078;2024-01-15T00:53:28;72.10;;;30.07;;
71166;SDS011;58864;45.928;20.078;2024-01-15T00:55:53;74.37;;;29.97;;
71166;SDS011;58864;45.928;20.078;2024-01-15T00:58:18;72.80;;;30.55;;
71166;SDS011;58864;45.928;20.078;2024-01-15T01:00:43;64.83;;;29.73;;
71166;SDS011;58864;45.928;20.078;2024-01-15T01:03:07;77.70;;;32.92;;
71166;SDS011;58864;45.928;20.078;2024-01-15T01:05:35;75.27;;;31.47;;
71166;SDS011;58864;45.928;20.078;2024-01-15T01:08:00;73.13;;;31.17;;
71166;SDS011;58864;45.928;20.078;2024-01-15T01:10:25;68.20;;;29.58;;
71166;SDS011;58864;45.928;20.078;2024-01-15T01:12:49;70.33;;;29.30;;
71166;SDS011;58864;45.928;20.078;2024-01-15T01:15:14;73.20;;;30.52;;
71166;SDS011;58864;45.928;20.078;2024-01-15T01:17:38;67.03;;;29.77;;
71166;SDS011;58864;45.928;20.078;2024-01-15T01:20:03;63.10;;;29.40;;
71166;SDS011;58864;45.928;20.078;2024-01-15T01:22:30;66.75;;;28.13;;
71166;SDS011;58864;45.928;20.078;2024-01-15T01:24:54;75.47;;;29.53;;
71166;SDS011;58864;45.928;20.078;2024-01-15T01:27:19;66.27;;;28.33;;
71166;SDS011;58864;45.928;20.078;2024-01-15T01:29:43;69.40;;;28.55;;
71166;SDS011;58864;45.928;20.078;2024-01-15T01:32:07;63.00;;;27.77;;
71166;SDS011;58864;45.928;20.078;2024-01-15T01:34:32;64.93;;;27.90;;
71166;SDS011;58864;45.928;20.078;2024-01-15T01:36:57;64.40;;;27.42;;
71166;SDS011;58864;45.928;20.078;2024-01-15T01:39:21;62.27;;;27.57;;
71166;SDS011;58864;45.928;20.078;2024-01-15T01:41:46;61.20;;;26.70;;
71166;SDS011;58864;45.928;20.078;2024-01-15T01:44:10;70.07;;;28.33;;
71166;SDS011;58864;45.928;20.078;2024-01-15T01:46:35;65.50;;;28.73;;
71166;SDS011;58864;45.928;20.078;2024-01-15T01:49:04;66.47;;;27.95;;
71166;SDS011;58864;45.928;20.078;2024-01-15T01:51:30;60.45;;;25.30;;
71166;SDS011;58864;45.928;20.078;2024-01-15T01:53:55;69.23;;;27.73;;
71166;SDS011;58864;45.928;20.078;2024-01-15T01:56:19;57.33;;;25.53;;
71166;SDS011;58864;45.928;20.078;2024-01-15T01:58:44;56.87;;;25.27;;
71166;SDS011;58864;45.928;20.078;2024-01-15T02:01:09;55.05;;;24.48;;
71166;SDS011;58864;45.928;20.078;2024-01-15T02:03:34;58.80;;;25.45;;
71166;SDS011;58864;45.928;20.078;2024-01-15T02:05:59;57.60;;;25.73;;
71166;SDS011;58864;45.928;20.078;2024-01-15T02:08:24;57.05;;;25.63;;
71166;SDS011;58864;45.928;20.078;2024-01-15T02:10:49;60.17;;;25.42;;
71166;SDS011;58864;45.928;20.078;2024-01-15T02:13:14;54.90;;;24.30;;
71166;SDS011;58864;45.928;20.078;2024-01-15T02:15:38;58.73;;;25.80;;
71166;SDS011;58864;45.928;20.078;2024-01-15T02:18:03;58.10;;;24.80;;
71166;SDS011;58864;45.928;20.078;2024-01-15T02:20:29;55.60;;;23.88;;
71166;SDS011;58864;45.928;20.078;2024-01-15T02:22:53;56.27;;;23.80;;
71166;SDS011;58864;45.928;20.078;2024-01-15T02:25:18;54.25;;;23.48;;
71166;SDS011;58864;45.928;20.078;2024-01-15T02:27:43;51.13;;;22.77;;
71166;SDS011;58864;45.928;20.078;2024-01-15T02:30:08;53.53;;;22.80;;
71166;SDS011;58864;45.928;20.078;2024-01-15T02:32:35;52.90;;;22.92;;
71166;SDS011;58864;45.928;20.078;2024-01-15T02:35:00;50.10;;;21.43;;
71166;SDS011;58864;45.928;20.078;2024-01-15T02:37:24;50.60;;;21.58;;
71166;SDS011;58864;45.928;20.078;2024-01-15T02:39:48;55.30;;;21.77;;
71166;SDS011;58864;45.928;20.078;2024-01-15T02:42:13;48.87;;;20.50;;
71166;SDS011;58864;45.928;20.078;2024-01-15T02:44:37;48.07;;;20.90;;
71166;SDS011;58864;45.928;20.078;2024-01-15T02:47:02;46.83;;;20.83;;
71166;SDS011;58864;45.928;20.078;2024-01-15T02:49:26;47.90;;;20.03;;
71166;SDS011;58864;45.928;20.078;2024-01-15T02:51:50;45.93;;;20.27;;
71166;SDS011;58864;45.928;20.078;2024-01-15T02:54:15;44.13;;;18.93;;
71166;SDS011;58864;45.928;20.078;2024-01-15T02:56:39;46.53;;;19.70;;
71166;SDS011;58864;45.928;20.078;2024-01-15T02:59:04;45.83;;;18.33;;
71166;SDS011;58864;45.928;20.078;2024-01-15T03:01:28;44.43;;;18.73;;
71166;SDS011;58864;45.928;20.078;2024-01-15T03:03:53;42.50;;;18.97;;
71166;SDS011;58864;45.928;20.078;2024-01-15T03:06:19;39.97;;;18.00;;
71166;SDS011;58864;45.928;20.078;2024-01-15T03:08:43;44.78;;;18.60;;
71166;SDS011;58864;45.928;20.078;2024-01-15T03:11:08;41.30;;;18.07;;
71166;SDS011;58864;45.928;20.078;2024-01-15T03:13:35;43.33;;;20.40;;
71166;SDS011;58864;45.928;20.078;2024-01-15T03:16:00;41.65;;;18.35;;
71166;SDS011;58864;45.928;20.078;2024-01-15T03:18:24;39.30;;;17.17;;
71166;SDS011;58864;45.928;20.078;2024-01-15T03:20:48;44.93;;;17.70;;
71166;SDS011;58864;45.928;20.078;2024-01-15T03:23:13;38.85;;;17.15;;
71166;SDS011;58864;45.928;20.078;2024-01-15T03:25:37;39.80;;;16.67;;
71166;SDS011;58864;45.928;20.078;2024-01-15T03:28:02;41.23;;;17.87;;
71166;SDS011;58864;45.928;20.078;2024-01-15T03:30:26;38.90;;;16.67;;
71166;SDS011;58864;45.928;20.078;2024-01-15T03:32:51;39.67;;;17.13;;
71166;SDS011;58864;45.928;20.078;2024-01-15T03:35:15;37.67;;;16.20;;
71166;SDS011;58864;45.928;20.078;2024-01-15T03:37:40;39.33;;;16.92;;
71166;SDS011;58864;45.928;20.078;2024-01-15T03:40:05;45.50;;;18.87;;
71166;SDS011;58864;45.928;20.078;2024-01-15T03:42:29;37.83;;;17.00;;
71166;SDS011;58864;45.928;20.078;2024-01-15T03:44:54;35.63;;;15.43;;
71166;SDS011;58864;45.928;20.078;2024-01-15T03:47:18;33.53;;;15.10;;
71166;SDS011;58864;45.928;20.078;2024-01-15T03:49:43;36.63;;;15.07;;
71166;SDS011;58864;45.928;20.078;2024-01-15T03:52:07;35.97;;;14.43;;
71166;SDS011;58864;45.928;20.078;2024-01-15T03:54:32;34.20;;;14.63;;
71166;SDS011;58864;45.928;20.078;2024-01-15T03:56:56;34.23;;;14.37;;
71166;SDS011;58864;45.928;20.078;2024-01-15T03:59:20;33.33;;;14.50;;
71166;SDS011;58864;45.928;20.078;2024-01-15T04:01:48;33.53;;;13.10;;
71166;SDS011;58864;45.928;20.078;2024-01-15T04:04:14;32.65;;;14.10;;
71166;SDS011;58864;45.928;20.078;2024-01-15T04:06:39;35.83;;;13.77;;
71166;SDS011;58864;45.928;20.078;2024-01-15T04:09:04;32.20;;;13.57;;
71166;SDS011;58864;45.928;20.078;2024-01-15T04:11:28;31.50;;;13.50;;
71166;SDS011;58864;45.928;20.078;2024-01-15T04:13:53;38.33;;;15.05;;
71166;SDS011;58864;45.928;20.078;2024-01-15T04:16:17;41.20;;;15.20;;
71166;SDS011;58864;45.928;20.078;2024-01-15T04:18:41;33.33;;;14.43;;
71166;SDS011;58864;45.928;20.078;2024-01-15T04:21:06;32.90;;;15.43;;
71166;SDS011;58864;45.928;20.078;2024-01-15T04:23:30;30.93;;;13.57;;
71166;SDS011;58864;45.928;20.078;2024-01-15T04:25:55;34.50;;;13.70;;
71166;SDS011;58864;45.928;20.078;2024-01-15T04:28:19;35.43;;;14.33;;
71166;SDS011;58864;45.928;20.078;2024-01-15T04:30:44;38.60;;;14.30;;
71166;SDS011;58864;45.928;20.078;2024-01-15T04:33:08;33.30;;;14.30;;
71166;SDS011;58864;45.928;20.078;2024-01-15T04:35:33;32.40;;;13.40;;
71166;SDS011;58864;45.928;20.078;2024-01-15T04:37:58;30.63;;;12.77;;
71166;SDS011;58864;45.928;20.078;2024-01-15T04:40:22;29.17;;;12.70;;
71166;SDS011;58864;45.928;20.078;2024-01-15T04:42:47;30.03;;;12.87;;
71166;SDS011;58864;45.928;20.078;2024-01-15T04:45:11;28.83;;;11.57;;
71166;SDS011;58864;45.928;20.078;2024-01-15T04:47:36;29.02;;;12.27;;
71166;SDS011;58864;45.928;20.078;2024-01-15T04:50:00;26.67;;;12.50;;
71166;SDS011;58864;45.928;20.078;2024-01-15T04:52:25;29.20;;;11.45;;
71166;SDS011;58864;45.928;20.078;2024-01-15T04:54:49;26.43;;;12.10;;
71166;SDS011;58864;45.928;20.078;2024-01-15T04:57:14;30.27;;;12.90;;
71166;SDS011;58864;45.928;20.078;2024-01-15T04:59:39;28.10;;;11.63;;
71166;SDS011;58864;45.928;20.078;2024-01-15T05:02:03;29.27;;;12.27;;
71166;SDS011;58864;45.928;20.078;2024-01-15T05:04:28;27.77;;;13.23;;
71166;SDS011;58864;45.928;20.078;2024-01-15T05:06:53;38.07;;;17.17;;
71166;SDS011;58864;45.928;20.078;2024-01-15T05:09:18;46.53;;;18.67;;
71166;SDS011;58864;45.928;20.078;2024-01-15T05:11:42;54.40;;;21.87;;
71166;SDS011;58864;45.928;20.078;2024-01-15T05:14:06;49.67;;;20.23;;
71166;SDS011;58864;45.928;20.078;2024-01-15T05:16:31;42.30;;;18.15;;
71166;SDS011;58864;45.928;20.078;2024-01-15T05:18:55;39.00;;;16.27;;
71166;SDS011;58864;45.928;20.078;2024-01-15T05:21:20;31.57;;;13.93;;
71166;SDS011;58864;45.928;20.078;2024-01-15T05:23:44;34.13;;;14.50;;
71166;SDS011;58864;45.928;20.078;2024-01-15T05:26:08;31.77;;;14.70;;
71166;SDS011;58864;45.928;20.078;2024-01-15T05:28:33;36.88;;;14.73;;
71166;SDS011;58864;45.928;20.078;2024-01-15T05:31:00;30.13;;;13.97;;
71166;SDS011;58864;45.928;20.078;2024-01-15T05:33:25;29.05;;;13.15;;
71166;SDS011;58864;45.928;20.078;2024-01-15T05:35:50;28.60;;;12.93;;
71166;SDS011;58864;45.928;20.078;2024-01-15T05:38:16;35.72;;;14.25;;
71166;SDS011;58864;45.928;20.078;2024-01-15T05:40:41;39.70;;;14.55;;
71166;SDS011;58864;45.928;20.078;2024-01-15T05:43:05;39.90;;;15.33;;
71166;SDS011;58864;45.928;20.078;2024-01-15T05:45:30;34.83;;;14.63;;
71166;SDS011;58864;45.928;20.078;2024-01-15T05:47:54;38.65;;;15.82;;
71166;SDS011;58864;45.928;20.078;2024-01-15T05:50:20;29.50;;;13.38;;
71166;SDS011;58864;45.928;20.078;2024-01-15T05:52:44;30.43;;;13.37;;
71166;SDS011;58864;45.928;20.078;2024-01-15T05:55:09;32.77;;;14.50;;
71166;SDS011;58864;45.928;20.078;2024-01-15T05:57:34;38.20;;;14.65;;
71166;SDS011;58864;45.928;20.078;2024-01-15T05:59:58;32.83;;;13.77;;
71166;SDS011;58864;45.928;20.078;2024-01-15T06:02:23;34.17;;;13.85;;
71166;SDS011;58864;45.928;20.078;2024-01-15T06:04:47;32.40;;;14.80;;
71166;SDS011;58864;45.928;20.078;2024-01-15T06:07:12;37.63;;;15.97;;
71166;SDS011;58864;45.928;20.078;2024-01-15T06:09:36;37.17;;;15.05;;
71166;SDS011;58864;45.928;20.078;2024-01-15T06:12:02;28.37;;;13.00;;
71166;SDS011;58864;45.928;20.078;2024-01-15T06:14:26;32.10;;;13.93;;
71166;SDS011;58864;45.928;20.078;2024-01-15T06:16:51;33.00;;;13.70;;
71166;SDS011;58864;45.928;20.078;2024-01-15T06:19:16;33.78;;;15.48;;
71166;SDS011;58864;45.928;20.078;2024-01-15T06:21:40;37.13;;;14.03;;
71166;SDS011;58864;45.928;20.078;2024-01-15T06:24:05;39.60;;;14.90;;
71166;SDS011;58864;45.928;20.078;2024-01-15T06:26:30;40.20;;;15.20;;
71166;SDS011;58864;45.928;20.078;2024-01-15T06:28:54;42.27;;;16.20;;
71166;SDS011;58864;45.928;20.078;2024-01-15T06:31:18;38.80;;;15.88;;
71166;SDS011;58864;45.928;20.078;2024-01-15T06:33:43;37.07;;;14.80;;
71166;SDS011;58864;45.928;20.078;2024-01-15T06:36:11;35.55;;;14.40;;
71166;SDS011;58864;45.928;20.078;2024-01-15T06:38:35;43.13;;;16.60;;
71166;SDS011;58864;45.928;20.078;2024-01-15T06:41:00;34.58;;;15.32;;
71166;SDS011;58864;45.928;20.078;2024-01-15T06:43:25;38.20;;;14.57;;
71166;SDS011;58864;45.928;20.078;2024-01-15T06:45:49;33.35;;;14.68;;
71166;SDS011;58864;45.928;20.078;2024-01-15T06:48:14;36.97;;;15.47;;
71166;SDS011;58864;45.928;20.078;2024-01-15T06:50:40;37.95;;;14.50;;
71166;SDS011;58864;45.928;20.078;2024-01-15T06:53:05;38.83;;;15.33;;
71166;SDS011;58864;45.928;20.078;2024-01-15T06:55:29;39.13;;;14.90;;
71166;SDS011;58864;45.928;20.078;2024-01-15T06:57:54;35.63;;;15.93;;
71166;SDS011;58864;45.928;20.078;2024-01-15T07:00:18;39.80;;;16.30;;
71166;SDS011;58864;45.928;20.078;2024-01-15T07:02:46;50.80;;;19.23;;
71166;SDS011;58864;45.928;20.078;2024-01-15T07:05:12;50.50;;;18.98;;
71166;SDS011;58864;45.928;20.078;2024-01-15T07:07:36;42.47;;;17.17;;
71166;SDS011;58864;45.928;20.078;2024-01-15T07:10:01;39.90;;;16.63;;
71166;SDS011;58864;45.928;20.078;2024-01-15T07:12:26;39.47;;;16.50;;
71166;SDS011;58864;45.928;20.078;2024-01-15T07:14:50;43.70;;;16.33;;
71166;SDS011;58864;45.928;20.078;2024-01-15T07:17:15;44.33;;;17.13;;
71166;SDS011;58864;45.928;20.078;2024-01-15T07:19:39;43.80;;;17.67;;
71166;SDS011;58864;45.928;20.078;2024-01-15T07:22:06;42.40;;;16.23;;
71166;SDS011;58864;45.928;20.078;2024-01-15T07:24:31;40.75;;;17.02;;
71166;SDS011;58864;45.928;20.078;2024-01-15T07:26:58;36.08;;;16.73;;
71166;SDS011;58864;45.928;20.078;2024-01-15T07:29:22;44.57;;;17.23;;
71166;SDS011;58864;45.928;20.078;2024-01-15T07:31:47;38.57;;;16.57;;
71166;SDS011;58864;45.928;20.078;2024-01-15T07:34:13;34.30;;;14.57;;
71166;SDS011;58864;45.928;20.078;2024-01-15T07:36:38;38.43;;;15.27;;
71166;SDS011;58864;45.928;20.078;2024-01-15T07:39:02;76.70;;;23.48;;
71166;SDS011;58864;45.928;20.078;2024-01-15T07:41:27;92.73;;;27.67;;
71166;SDS011;58864;45.928;20.078;2024-01-15T07:43:51;78.70;;;26.67;;
71166;SDS011;58864;45.928;20.078;2024-01-15T07:46:16;60.17;;;22.23;;
71166;SDS011;58864;45.928;20.078;2024-01-15T07:48:40;47.30;;;18.73;;
71166;SDS011;58864;45.928;20.078;2024-01-15T07:51:05;49.70;;;18.90;;
71166;SDS011;58864;45.928;20.078;2024-01-15T07:53:30;46.10;;;18.95;;
71166;SDS011;58864;45.928;20.078;2024-01-15T07:55:54;47.83;;;17.00;;
71166;SDS011;58864;45.928;20.078;2024-01-15T07:58:20;50.38;;;19.83;;
71166;SDS011;58864;45.928;20.078;2024-01-15T08:00:44;47.37;;;19.53;;
71166;SDS011;58864;45.928;20.078;2024-01-15T08:03:09;43.38;;;17.95;;
71166;SDS011;58864;45.928;20.078;2024-01-15T08:05:33;42.33;;;17.87;;
71166;SDS011;58864;45.928;20.078;2024-01-15T08:07:58;45.00;;;19.25;;
71166;SDS011;58864;45.928;20.078;2024-01-15T08:10:23;40.67;;;16.90;;
71166;SDS011;58864;45.928;20.078;2024-01-15T08:12:47;42.27;;;17.77;;
71166;SDS011;58864;45.928;20.078;2024-01-15T08:15:12;47.47;;;20.70;;
71166;SDS011;58864;45.928;20.078;2024-01-15T08:17:36;52.35;;;21.58;;
71166;SDS011;58864;45.928;20.078;2024-01-15T08:20:01;55.83;;;23.03;;
71166;SDS011;58864;45.928;20.078;2024-01-15T08:22:25;52.60;;;22.00;;
71166;SDS011;58864;45.928;20.078;2024-01-15T08:24:50;44.95;;;20.45;;
71166;SDS011;58864;45.928;20.078;2024-01-15T08:27:14;44.53;;;19.90;;
71166;SDS011;58864;45.928;20.078;2024-01-15T08:29:38;41.83;;;19.20;;
71166;SDS011;58864;45.928;20.078;2024-01-15T08:32:03;47.97;;;19.40;;
71166;SDS011;58864;45.928;20.078;2024-01-15T08:34:28;51.97;;;19.77;;
71166;SDS011;58864;45.928;20.078;2024-01-15T08:36:53;62.83;;;24.07;;
71166;SDS011;58864;45.928;20.078;2024-01-15T08:39:18;78.38;;;28.65;;
71166;SDS011;58864;45.928;20.078;2024-01-15T08:41:43;77.03;;;28.00;;
71166;SDS011;58864;45.928;20.078;2024-01-15T08:44:07;69.27;;;25.53;;
71166;SDS011;58864;45.928;20.078;2024-01-15T08:46:32;59.20;;;23.03;;
71166;SDS011;58864;45.928;20.078;2024-01-15T08:48:56;39.28;;;17.42;;
71166;SDS011;58864;45.928;20.078;2024-01-15T08:51:21;32.53;;;14.77;;
71166;SDS011;58864;45.928;20.078;2024-01-15T08:53:45;41.50;;;16.10;;
71166;SDS011;58864;45.928;20.078;2024-01-15T08:56:09;42.17;;;17.20;;
71166;SDS011;58864;45.928;20.078;2024-01-15T08:58:34;50.20;;;18.63;;
71166;SDS011;58864;45.928;20.078;2024-01-15T09:00:59;55.92;;;20.38;;
71166;SDS011;58864;45.928;20.078;2024-01-15T09:03:23;46.40;;;18.70;;
71166;SDS011;58864;45.928;20.078;2024-01-15T09:05:48;47.80;;;18.70;;
71166;SDS011;58864;45.928;20.078;2024-01-15T09:08:14;52.40;;;20.83;;
71166;SDS011;58864;45.928;20.078;2024-01-15T09:10:38;45.80;;;18.13;;
71166;SDS011;58864;45.928;20.078;2024-01-15T09:13:03;39.47;;;16.90;;
71166;SDS011;58864;45.928;20.078;2024-01-15T09:15:28;39.58;;;16.10;;
71166;SDS011;58864;45.928;20.078;2024-01-15T09:17:53;33.07;;;14.50;;
71166;SDS011;58864;45.928;20.078;2024-01-15T09:20:17;30.73;;;13.50;;
71166;SDS011;58864;45.928;20.078;2024-01-15T09:22:42;31.80;;;12.75;;
71166;SDS011;58864;45.928;20.078;2024-01-15T09:25:07;30.37;;;12.27;;
71166;SDS011;58864;45.928;20.078;2024-01-15T09:27:32;32.42;;;12.15;;
71166;SDS011;58864;45.928;20.078;2024-01-15T09:29:57;33.50;;;13.60;;
71166;SDS011;58864;45.928;20.078;2024-01-15T09:32:21;38.97;;;15.93;;
71166;SDS011;58864;45.928;20.078;2024-01-15T09:34:46;33.63;;;13.82;;
71166;SDS011;58864;45.928;20.078;2024-01-15T09:37:10;34.13;;;14.23;;
71166;SDS011;58864;45.928;20.078;2024-01-15T09:39:35;31.03;;;13.13;;
71166;SDS011;58864;45.928;20.078;2024-01-15T09:41:59;30.00;;;11.60;;
71166;SDS011;58864;45.928;20.078;2024-01-15T09:44:24;29.88;;;11.95;;
71166;SDS011;58864;45.928;20.078;2024-01-15T09:46:48;27.23;;;11.40;;
71166;SDS011;58864;45.928;20.078;2024-01-15T09:49:16;28.40;;;12.50;;
71166;SDS011;58864;45.928;20.078;2024-01-15T09:51:40;28.45;;;11.98;;
71166;SDS011;58864;45.928;20.078;2024-01-15T09:54:09;28.27;;;12.02;;
71166;SDS011;58864;45.928;20.078;2024-01-15T09:56:34;38.13;;;15.40;;
71166;SDS011;58864;45.928;20.078;2024-01-15T09:58:59;37.13;;;15.70;;
71166;SDS011;58864;45.928;20.078;2024-01-15T10:01:24;43.22;;;17.30;;
71166;SDS011;58864;45.928;20.078;2024-01-15T10:03:49;43.80;;;17.70;;
71166;SDS011;58864;45.928;20.078;2024-01-15T10:06:15;47.92;;;18.20;;
71166;SDS011;58864;45.928;20.078;2024-01-15T10:08:43;52.10;;;18.58;;
71166;SDS011;58864;45.928;20.078;2024-01-15T10:11:12;51.30;;;20.08;;
71166;SDS011;58864;45.928;20.078;2024-01-15T10:13:36;49.17;;;21.90;;
71166;SDS011;58864;45.928;20.078;2024-01-15T10:16:01;64.33;;;29.63;;
71166;SDS011;58864;45.928;20.078;2024-01-15T10:18:27;81.10;;;27.00;;
71166;SDS011;58864;45.928;20.078;2024-01-15T10:20:51;38.83;;;15.33;;
71166;SDS011;58864;45.928;20.078;2024-01-15T10:23:16;48.33;;;19.40;;
71166;SDS011;58864;45.928;20.078;2024-01-15T10:25:43;44.07;;;18.83;;
71166;SDS011;58864;45.928;20.078;2024-01-15T10:28:08;43.95;;;18.85;;
71166;SDS011;58864;45.928;20.078;2024-01-15T10:30:34;38.75;;;17.13;;
71166;SDS011;58864;45.928;20.078;2024-01-15T10:32:59;55.17;;;19.02;;
71166;SDS011;58864;45.928;20.078;2024-01-15T10:35:34;51.97;;;20.77;;
71166;SDS011;58864;45.928;20.078;2024-01-15T10:37:59;135.23;;;61.60;;
71166;SDS011;58864;45.928;20.078;2024-01-15T10:40:24;73.13;;;31.40;;
71166;SDS011;58864;45.928;20.078;2024-01-15T10:42:48;56.05;;;23.33;;
71166;SDS011;58864;45.928;20.078;2024-01-15T10:45:13;48.73;;;22.47;;
71166;SDS011;58864;45.928;20.078;2024-01-15T10:47:38;42.38;;;19.88;;
71166;SDS011;58864;45.928;20.078;2024-01-15T10:50:03;41.50;;;18.13;;
71166;SDS011;58864;45.928;20.078;2024-01-15T10:52:28;45.58;;;19.27;;
71166;SDS011;58864;45.928;20.078;2024-01-15T10:54:53;45.37;;;19.63;;
71166;SDS011;58864;45.928;20.078;2024-01-15T10:57:18;42.20;;;18.20;;
71166;SDS011;58864;45.928;20.078;2024-01-15T10:59:42;41.97;;;20.60;;
71166;SDS011;58864;45.928;20.078;2024-01-15T11:02:07;56.43;;;22.47;;
71166;SDS011;58864;45.928;20.078;2024-01-15T11:04:32;51.22;;;21.60;;
71166;SDS011;58864;45.928;20.078;2024-01-15T11:06:56;48.63;;;20.83;;
71166;SDS011;58864;45.928;20.078;2024-01-15T11:09:21;55.73;;;24.47;;
71166;SDS011;58864;45.928;20.078;2024-01-15T11:11:47;64.47;;;26.35;;
71166;SDS011;58864;45.928;20.078;2024-01-15T11:17:09;52.42;;;21.45;;
71166;SDS011;58864;45.928;20.078;2024-01-15T11:19:37;58.13;;;22.37;;
71166;SDS011;58864;45.928;20.078;2024-01-15T11:22:06;64.57;;;26.95;;
71166;SDS011;58864;45.928;20.078;2024-01-15T11:24:35;52.20;;;21.48;;
71166;SDS011;58864;45.928;20.078;2024-01-15T11:27:05;50.30;;;21.45;;
71166;SDS011;58864;45.928;20.078;2024-01-15T11:29:34;64.07;;;26.70;;
71166;SDS011;58864;45.928;20.078;2024-01-15T11:32:09;36.00;;;16.33;;
71166;SDS011;58864;45.928;20.078;2024-01-15T11:34:50;39.88;;;17.25;;
71166;SDS011;58864;45.928;20.078;2024-01-15T11:37:22;70.20;;;31.88;;
71166;SDS011;58864;45.928;20.078;2024-01-15T11:39:47;46.90;;;21.10;;
71166;SDS011;58864;45.928;20.078;2024-01-15T11:42:12;43.07;;;20.73;;
71166;SDS011;58864;45.928;20.078;2024-01-15T11:44:37;35.22;;;16.88;;
71166;SDS011;58864;45.928;20.078;2024-01-15T11:47:03;43.30;;;19.67;;
71166;SDS011;58864;45.928;20.078;2024-01-15T11:52:02;36.30;;;15.98;;
71166;SDS011;58864;45.928;20.078;2024-01-15T11:54:28;64.07;;;27.35;;
71166;SDS011;58864;45.928;20.078;2024-01-15T11:56:57;67.30;;;35.15;;
71166;SDS011;58864;45.928;20.078;2024-01-15T11:59:22;38.05;;;19.92;;
71166;SDS011;58864;45.928;20.078;2024-01-15T12:01:46;52.23;;;27.40;;
71166;SDS011;58864;45.928;20.078;2024-01-15T12:04:11;48.90;;;25.83;;
71166;SDS011;58864;45.928;20.078;2024-01-15T12:06:35;50.00;;;25.50;;
71166;SDS011;58864;45.928;20.078;2024-01-15T12:09:08;54.47;;;26.02;;
71166;SDS011;58864;45.928;20.078;2024-01-15T12:11:33;53.78;;;26.35;;
71166;SDS011;58864;45.928;20.078;2024-01-15T12:14:00;46.33;;;20.90;;
71166;SDS011;58864;45.928;20.078;2024-01-15T12:16:25;42.22;;;17.13;;
71166;SDS011;58864;45.928;20.078;2024-01-15T12:18:49;41.47;;;17.50;;
71166;SDS011;58864;45.928;20.078;2024-01-15T12:21:14;41.40;;;17.70;;
71166;SDS011;58864;45.928;20.078;2024-01-15T12:23:39;54.20;;;22.30;;
71166;SDS011;58864;45.928;20.078;2024-01-15T12:26:03;61.78;;;27.23;;
71166;SDS011;58864;45.928;20.078;2024-01-15T12:28:28;64.97;;;27.67;;
71166;SDS011;58864;45.928;20.078;2024-01-15T12:30:52;147.87;;;53.77;;
71166;SDS011;58864;45.928;20.078;2024-01-15T12:33:17;158.80;;;53.57;;
71166;SDS011;58864;45.928;20.078;2024-01-15T12:35:42;144.20;;;50.85;;
71166;SDS011;58864;45.928;20.078;2024-01-15T12:38:07;158.87;;;62.27;;
71166;SDS011;58864;45.928;20.078;2024-01-15T12:40:32;160.97;;;62.57;;
71166;SDS011;58864;45.928;20.078;2024-01-15T12:42:58;137.57;;;54.30;;
71166;SDS011;58864;45.928;20.078;2024-01-15T12:45:23;117.57;;;45.03;;
71166;SDS011;58864;45.928;20.078;2024-01-15T12:47:48;92.38;;;38.15;;
71166;SDS011;58864;45.928;20.078;2024-01-15T12:50:12;101.97;;;41.67;;
71166;SDS011;58864;45.928;20.078;2024-01-15T12:52:37;97.40;;;39.07;;
71166;SDS011;58864;45.928;20.078;2024-01-15T12:55:05;81.25;;;30.55;;
71166;SDS011;58864;45.928;20.078;2024-01-15T12:57:30;61.85;;;27.17;;
71166;SDS011;58864;45.928;20.078;2024-01-15T12:59:54;60.40;;;25.83;;
71166;SDS011;58864;45.928;20.078;2024-01-15T13:02:19;67.23;;;26.83;;
71166;SDS011;58864;45.928;20.078;2024-01-15T13:04:43;58.60;;;24.55;;
71166;SDS011;58864;45.928;20.078;2024-01-15T13:07:08;55.03;;;22.93;;
71166;SDS011;58864;45.928;20.078;2024-01-15T13:09:35;53.38;;;21.92;;
71166;SDS011;58864;45.928;20.078;2024-01-15T13:12:00;57.33;;;23.30;;
71166;SDS011;58864;45.928;20.078;2024-01-15T13:14:25;53.00;;;24.45;;
71166;SDS011;58864;45.928;20.078;2024-01-15T13:16:50;59.03;;;24.98;;
71166;SDS011;58864;45.928;20.078;2024-01-15T13:19:15;67.03;;;30.40;;
71166;SDS011;58864;45.928;20.078;2024-01-15T13:21:40;64.40;;;28.57;;
71166;SDS011;58864;45.928;20.078;2024-01-15T13:24:04;68.20;;;29.27;;
71166;SDS011;58864;45.928;20.078;2024-01-15T13:26:29;72.97;;;31.43;;
71166;SDS011;58864;45.928;20.078;2024-01-15T13:28:54;70.17;;;29.23;;
71166;SDS011;58864;45.928;20.078;2024-01-15T13:31:18;82.72;;;35.08;;
71166;SDS011;58864;45.928;20.078;2024-01-15T13:33:42;103.83;;;43.13;;
71166;SDS011;58864;45.928;20.078;2024-01-15T13:36:07;114.27;;;48.23;;
71166;SDS011;58864;45.928;20.078;2024-01-15T13:38:34;153.45;;;55.35;;
71166;SDS011;58864;45.928;20.078;2024-01-15T13:41:00;137.48;;;48.17;;
71166;SDS011;58864;45.928;20.078;2024-01-15T13:43:25;89.60;;;36.93;;
71166;SDS011;58864;45.928;20.078;2024-01-15T13:45:51;100.53;;;40.90;;
71166;SDS011;58864;45.928;20.078;2024-01-15T13:48:16;94.60;;;37.92;;
71166;SDS011;58864;45.928;20.078;2024-01-15T13:50:42;85.55;;;35.10;;
71166;SDS011;58864;45.928;20.078;2024-01-15T13:53:06;79.20;;;33.57;;
71166;SDS011;58864;45.928;20.078;2024-01-15T13:55:33;77.78;;;31.77;;
71166;SDS011;58864;45.928;20.078;2024-01-15T13:57:57;73.53;;;31.73;;
71166;SDS011;58864;45.928;20.078;2024-01-15T14:00:22;92.37;;;36.37;;